createdAt,value
2022-10-06T00:00:03.629Z,2.15
2022-10-06T00:10:09.937Z,2.13
2022-10-06T00:20:13.278Z,1.85
2022-10-06T00:30:19.690Z,2.22
2022-10-06T00:40:23.246Z,2.10
2022-10-06T00:50:28.111Z,2.15
2022-10-06T01:00:31.213Z,2.40
2022-10-06T01:10:35.939Z,2.53
2022-10-06T01:20:39.369Z,2.33
2022-10-06T01:30:51.023Z,2.40
2022-10-06T01:40:55.109Z,2.15
2022-10-06T01:50:59.471Z,2.85
2022-10-06T02:01:06.066Z,2.60
2022-10-06T02:11:13.080Z,2.95
2022-10-06T02:21:21.202Z,2.88
2022-10-06T02:31:26.297Z,4.03
2022-10-06T02:41:30.046Z,2.90
2022-10-06T02:51:34.726Z,3.00
2022-10-06T03:01:38.856Z,3.25
2022-10-06T03:11:51.253Z,2.88
2022-10-06T03:22:20.586Z,4.27
2022-10-06T03:32:29.578Z,3.50
2022-10-06T03:42:33.406Z,3.33
2022-10-06T03:52:38.458Z,3.10
2022-10-06T04:02:41.455Z,3.00
2022-10-06T04:12:46.484Z,3.20
2022-10-06T04:22:49.486Z,3.67
2022-10-06T04:32:55.006Z,3.70
2022-10-06T04:42:58.319Z,3.25
2022-10-06T04:53:03.597Z,4.03
2022-10-06T05:03:06.738Z,3.03
2022-10-06T05:13:12.619Z,4.00
2022-10-06T05:23:15.766Z,4.05
2022-10-06T05:33:20.313Z,4.90
2022-10-06T05:43:23.652Z,4.23
2022-10-06T05:53:28.926Z,4.80
2022-10-06T06:03:32.366Z,6.10
2022-10-06T06:13:37.545Z,5.53
2022-10-06T06:23:50.644Z,5.38
2022-10-06T06:33:57.587Z,5.15
2022-10-06T06:44:03.392Z,4.53
2022-10-06T06:54:13.701Z,4.00
2022-10-06T07:04:19.722Z,4.85
2022-10-06T07:14:24.742Z,4.60
2022-10-06T07:24:46.319Z,5.18
2022-10-06T07:34:52.039Z,5.40
2022-10-06T07:45:12.683Z,4.78
2022-10-06T07:55:19.133Z,4.90
2022-10-06T08:05:42.299Z,4.82
2022-10-06T08:15:50.187Z,4.75
2022-10-06T08:25:54.461Z,5.28
2022-10-06T08:36:03.728Z,5.17
2022-10-06T08:46:07.092Z,4.57
2022-10-06T08:56:19.232Z,3.90
2022-10-06T09:06:38.168Z,4.68
2022-10-06T09:16:49.876Z,3.75
2022-10-06T09:26:54.583Z,4.20
2022-10-06T09:37:02.962Z,4.03
2022-10-06T09:47:26.905Z,3.92
2022-10-06T09:57:32.510Z,3.72
2022-10-06T10:07:37.571Z,3.28
2022-10-06T10:17:48.390Z,2.90
2022-10-06T10:27:59.276Z,2.85
2022-10-06T10:38:13.691Z,2.88
2022-10-06T10:48:24.275Z,2.67
2022-10-06T10:58:33.125Z,2.75
2022-10-06T11:08:44.822Z,3.05
2022-10-06T11:19:03.176Z,3.20
2022-10-06T11:29:18.522Z,2.92
2022-10-06T11:39:28.260Z,3.10
2022-10-06T11:49:56.174Z,2.60
2022-10-06T12:00:40.487Z,3.15
2022-10-06T12:10:50.381Z,2.33
2022-10-06T12:21:06.566Z,2.88
2022-10-06T12:31:36.179Z,2.55
2022-10-06T12:42:03.896Z,1.90
2022-10-06T12:52:14.421Z,2.08
2022-10-06T13:02:23.053Z,1.48
2022-10-06T13:12:31.901Z,1.80
2022-10-06T13:22:36.405Z,2.08
2022-10-06T13:42:47.402Z,2.28
2022-10-06T13:52:50.722Z,1.95
2022-10-06T14:02:58.979Z,2.08
2022-10-06T14:13:03.070Z,2.10
2022-10-06T14:23:41.928Z,2.13
2022-10-06T14:33:45.327Z,2.50
2022-10-06T14:43:54.002Z,2.20
2022-10-06T14:53:58.826Z,1.80
2022-10-06T15:04:05.561Z,2.22
2022-10-06T15:14:09.498Z,1.67
2022-10-06T15:24:15.823Z,1.50
2022-10-06T15:34:20.781Z,1.75
2022-10-06T15:44:25.378Z,1.90
2022-10-06T16:04:47.696Z,2.05
2022-10-06T16:14:50.830Z,1.63
2022-10-06T16:24:55.293Z,1.60
2022-10-06T16:34:58.427Z,1.70
2022-10-06T16:45:02.752Z,1.77
2022-10-06T16:55:06.309Z,1.87
2022-10-06T17:05:10.729Z,1.88
2022-10-06T17:15:13.892Z,2.00
2022-10-06T17:25:18.444Z,2.08
2022-10-06T17:35:21.756Z,2.25
2022-10-06T17:45:26.954Z,2.45
2022-10-06T17:55:30.041Z,4.32
2022-10-06T18:05:34.507Z,3.58
2022-10-06T18:15:38.117Z,2.23
2022-10-06T18:25:42.924Z,3.65
2022-10-06T18:46:30.351Z,3.38
2022-10-06T18:56:36.332Z,3.27
2022-10-06T19:06:42.649Z,9.27
2022-10-06T19:16:46.202Z,5.70
2022-10-06T19:26:52.986Z,5.07
2022-10-06T19:36:58.325Z,4.18
2022-10-06T19:47:02.708Z,4.63
2022-10-06T19:57:06.263Z,5.03
2022-10-06T20:07:10.805Z,6.95
2022-10-06T20:17:13.823Z,4.93
2022-10-06T20:27:18.275Z,4.20
2022-10-06T20:37:21.423Z,5.90
2022-10-06T20:47:25.787Z,4.25
2022-10-06T20:57:33.527Z,4.83
2022-10-06T21:07:49.537Z,3.95
2022-10-06T21:17:52.609Z,4.57
2022-10-06T21:27:57.048Z,4.68
2022-10-06T21:38:00.105Z,4.67
2022-10-06T21:48:04.649Z,4.53
2022-10-06T21:58:07.652Z,5.17
2022-10-06T22:08:13.370Z,6.00
2022-10-06T22:18:16.273Z,5.50
2022-10-06T22:28:20.793Z,5.28
2022-10-06T22:38:24.056Z,5.63
2022-10-06T22:48:28.897Z,6.03
2022-10-06T22:58:32.091Z,5.60
2022-10-06T23:08:38.064Z,6.20
2022-10-06T23:18:42.445Z,6.13
2022-10-06T23:28:47.446Z,4.33
2022-10-06T23:38:50.529Z,6.40
2022-10-06T23:48:54.830Z,6.68
2022-10-06T23:58:57.890Z,5.70
